sensor_id;sensor_type;location;lat;lon;timestamp;noise_LAeq;noise_LA_min;noise_LA_max;noise_LA01;noise_LA95
71030;Laerm;63723;51.436;5.976;2023-03-31T00:00:05;51.11;49.94;52.41;;
71030;Laerm;63723;51.436;5.976;2023-03-31T00:00:21;51.10;49.52;52.24;;
71030;Laerm;63723;51.436;5.976;2023-03-31T00:00:31;51.08;49.66;52.17;;
71030;Laerm;63723;51.436;5.976;2023-03-31T00:00:42;51.34;49.97;53.09;;
71030;Laerm;63723;51.436;5.976;2023-03-31T00:00:52;52.10;50.58;53.19;;
71030;Laerm;63723;51.436;5.976;2023-03-31T00:01:03;51.79;50.46;53.06;;
71030;Laerm;63723;51.436;5.976;2023-03-31T00:01:13;51.78;50.64;53.07;;
71030;Laerm;63723;51.436;5.976;2023-03-31T00:01:24;51.86;50.75;53.15;;
71030;Laerm;63723;51.436;5.976;2023-03-31T00:01:34;51.79;50.64;53.03;;
71030;Laerm;63723;51.436;5.976;2023-03-31T00:01:45;51.86;50.69;53.23;;
71030;Laerm;63723;51.436;5.976;2023-03-31T00:01:55;52.10;50.54;53.21;;
71030;Laerm;63723;51.436;5.976;2023-03-31T00:02:06;52.12;50.63;53.30;;
71030;Laerm;63723;51.436;5.976;2023-03-31T00:02:22;52.21;51.03;53.34;;
71030;Laerm;63723;51.436;5.976;2023-03-31T00:02:32;52.16;51.00;53.58;;
71030;Laerm;63723;51.436;5.976;2023-03-31T00:02:42;52.28;50.87;53.65;;
71030;Laerm;63723;51.436;5.976;2023-03-31T00:02:53;52.18;50.88;53.55;;
71030;Laerm;63723;51.436;5.976;2023-03-31T00:03:05;52.02;50.48;53.11;;
71030;Laerm;63723;51.436;5.976;2023-03-31T00:03:19;52.01;50.90;53.14;;
71030;Laerm;63723;51.436;5.976;2023-03-31T00:03:33;52.11;49.97;54.60;;
71030;Laerm;63723;51.436;5.976;2023-03-31T00:03:47;52.67;51.16;55.64;;
71030;Laerm;63723;51.436;5.976;2023-03-31T00:03:57;52.49;50.86;53.98;;
71030;Laerm;63723;51.436;5.976;2023-03-31T00:04:13;52.41;50.95;53.56;;
71030;Laerm;63723;51.436;5.976;2023-03-31T00:04:23;52.46;51.18;53.82;;
71030;Laerm;63723;51.436;5.976;2023-03-31T00:04:35;52.51;51.37;54.00;;
71030;Laerm;63723;51.436;5.976;2023-03-31T00:04:45;52.66;51.52;55.45;;
71030;Laerm;63723;51.436;5.976;2023-03-31T00:05:01;52.75;51.19;56.15;;
71030;Laerm;63723;51.436;5.976;2023-03-31T00:05:11;52.76;51.57;55.98;;
71030;Laerm;63723;51.436;5.976;2023-03-31T00:05:26;52.60;51.12;54.44;;
71030;Laerm;63723;51.436;5.976;2023-03-31T00:05:37;52.80;51.62;57.10;;
71030;Laerm;63723;51.436;5.976;2023-03-31T00:05:47;52.84;51.45;57.31;;
71030;Laerm;63723;51.436;5.976;2023-03-31T00:05:58;52.86;51.33;54.39;;
71030;Laerm;63723;51.436;5.976;2023-03-31T00:06:09;53.04;51.60;56.50;;
71030;Laerm;63723;51.436;5.976;2023-03-31T00:06:20;52.95;51.78;56.52;;
71030;Laerm;63723;51.436;5.976;2023-03-31T00:06:32;52.98;51.91;55.29;;
71030;Laerm;63723;51.436;5.976;2023-03-31T00:06:46;52.83;51.56;54.48;;
71030;Laerm;63723;51.436;5.976;2023-03-31T00:06:57;52.84;51.64;55.92;;
71030;Laerm;63723;51.436;5.976;2023-03-31T00:07:07;52.80;51.67;53.97;;
71030;Laerm;63723;51.436;5.976;2023-03-31T00:07:19;52.75;51.29;53.90;;
71030;Laerm;63723;51.436;5.976;2023-03-31T00:07:33;52.75;51.10;57.99;;
71030;Laerm;63723;51.436;5.976;2023-03-31T00:07:46;52.82;51.74;54.33;;
71030;Laerm;63723;51.436;5.976;2023-03-31T00:07:57;52.64;51.43;54.05;;
71030;Laerm;63723;51.436;5.976;2023-03-31T00:08:10;52.60;51.65;53.70;;
71030;Laerm;63723;51.436;5.976;2023-03-31T00:08:23;52.75;51.05;56.89;;
71030;Laerm;63723;51.436;5.976;2023-03-31T00:08:34;52.72;51.34;57.69;;
71030;Laerm;63723;51.436;5.976;2023-03-31T00:08:44;52.77;51.60;59.77;;
71030;Laerm;63723;51.436;5.976;2023-03-31T00:08:56;52.59;51.24;53.75;;
71030;Laerm;63723;51.436;5.976;2023-03-31T00:09:11;52.85;51.28;57.74;;
71030;Laerm;63723;51.436;5.976;2023-03-31T00:09:22;52.76;51.51;55.49;;
71030;Laerm;63723;51.436;5.976;2023-03-31T00:09:32;52.71;51.56;54.55;;
71030;Laerm;63723;51.436;5.976;2023-03-31T00:09:44;52.79;51.62;54.74;;
71030;Laerm;63723;51.436;5.976;2023-03-31T00:09:57;53.03;51.41;57.74;;
71030;Laerm;63723;51.436;5.976;2023-03-31T00:10:10;52.72;51.40;56.81;;
71030;Laerm;63723;51.436;5.976;2023-03-31T00:10:21;52.75;51.30;53.97;;
71030;Laerm;63723;51.436;5.976;2023-03-31T00:10:32;52.70;51.44;53.98;;
71030;Laerm;63723;51.436;5.976;2023-03-31T00:10:43;52.91;51.44;58.05;;
71030;Laerm;63723;51.436;5.976;2023-03-31T00:10:57;53.13;51.58;58.34;;
71030;Laerm;63723;51.436;5.976;2023-03-31T00:11:09;52.89;51.78;57.98;;
71030;Laerm;63723;51.436;5.976;2023-03-31T00:11:20;53.09;51.81;57.99;;
71030;Laerm;63723;51.436;5.976;2023-03-31T00:11:31;53.11;51.89;58.92;;
71030;Laerm;63723;51.436;5.976;2023-03-31T00:11:41;52.93;51.39;57.35;;
71030;Laerm;63723;51.436;5.976;2023-03-31T00:11:51;52.88;51.56;54.02;;
71030;Laerm;63723;51.436;5.976;2023-03-31T00:12:02;52.96;51.76;58.12;;
71030;Laerm;63723;51.436;5.976;2023-03-31T00:12:15;52.94;51.78;55.50;;
71030;Laerm;63723;51.436;5.976;2023-03-31T00:12:26;52.90;51.53;54.16;;
71030;Laerm;63723;51.436;5.976;2023-03-31T00:12:36;52.88;51.51;54.15;;
71030;Laerm;63723;51.436;5.976;2023-03-31T00:12:46;52.95;51.72;58.16;;
71030;Laerm;63723;51.436;5.976;2023-03-31T00:12:57;52.96;51.65;54.11;;
71030;Laerm;63723;51.436;5.976;2023-03-31T00:13:07;52.96;51.52;55.96;;
71030;Laerm;63723;51.436;5.976;2023-03-31T00:13:17;52.95;51.85;54.35;;
71030;Laerm;63723;51.436;5.976;2023-03-31T00:13:28;53.03;51.77;58.50;;
71030;Laerm;63723;51.436;5.976;2023-03-31T00:13:39;52.86;51.34;54.12;;
71030;Laerm;63723;51.436;5.976;2023-03-31T00:13:49;53.20;51.90;57.96;;
71030;Laerm;63723;51.436;5.976;2023-03-31T00:14:00;53.36;51.55;61.23;;
71030;Laerm;63723;51.436;5.976;2023-03-31T00:14:10;53.22;52.03;54.23;;
71030;Laerm;63723;51.436;5.976;2023-03-31T00:14:21;53.23;51.70;55.84;;
71030;Laerm;63723;51.436;5.976;2023-03-31T00:14:31;53.20;51.91;56.87;;
71030;Laerm;63723;51.436;5.976;2023-03-31T00:14:42;53.21;51.85;55.61;;
71030;Laerm;63723;51.436;5.976;2023-03-31T00:14:52;53.07;51.92;59.04;;
71030;Laerm;63723;51.436;5.976;2023-03-31T00:15:02;52.92;51.54;54.39;;
71030;Laerm;63723;51.436;5.976;2023-03-31T00:15:13;53.14;51.82;54.32;;
71030;Laerm;63723;51.436;5.976;2023-03-31T00:15:23;53.10;51.55;54.32;;
71030;Laerm;63723;51.436;5.976;2023-03-31T00:15:33;52.97;51.81;53.94;;
71030;Laerm;63723;51.436;5.976;2023-03-31T00:15:43;53.15;51.72;59.51;;
71030;Laerm;63723;51.436;5.976;2023-03-31T00:15:55;53.15;51.89;55.60;;
71030;Laerm;63723;51.436;5.976;2023-03-31T00:16:07;53.26;51.96;55.30;;
71030;Laerm;63723;51.436;5.976;2023-03-31T00:16:17;53.63;50.25;61.76;;
71030;Laerm;63723;51.436;5.976;2023-03-31T00:16:28;54.70;50.00;66.26;;
71030;Laerm;63723;51.436;5.976;2023-03-31T00:16:38;54.58;50.04;65.21;;
71030;Laerm;63723;51.436;5.976;2023-03-31T00:16:48;53.87;50.31;61.94;;
71030;Laerm;63723;51.436;5.976;2023-03-31T00:16:59;53.43;51.95;60.03;;
71030;Laerm;63723;51.436;5.976;2023-03-31T00:17:11;53.96;52.50;59.17;;
71030;Laerm;63723;51.436;5.976;2023-03-31T00:17:21;54.00;52.59;57.05;;
71030;Laerm;63723;51.436;5.976;2023-03-31T00:17:32;54.00;52.74;62.22;;
71030;Laerm;63723;51.436;5.976;2023-03-31T00:17:42;54.23;52.94;55.63;;
71030;Laerm;63723;51.436;5.976;2023-03-31T00:17:52;54.19;50.32;60.92;;
71030;Laerm;63723;51.436;5.976;2023-03-31T00:18:03;54.17;50.11;59.11;;
71030;Laerm;63723;51.436;5.976;2023-03-31T00:18:13;53.50;50.32;58.01;;
71030;Laerm;63723;51.436;5.976;2023-03-31T00:18:23;53.21;50.49;58.09;;
71030;Laerm;63723;51.436;5.976;2023-03-31T00:18:35;54.94;52.29;62.22;;
71030;Laerm;63723;51.436;5.976;2023-03-31T00:18:45;53.78;52.29;61.84;;
71030;Laerm;63723;51.436;5.976;2023-03-31T00:18:59;55.80;52.25;62.69;;
71030;Laerm;63723;51.436;5.976;2023-03-31T00:19:11;54.09;52.26;61.00;;
71030;Laerm;63723;51.436;5.976;2023-03-31T00:19:27;56.45;52.26;62.40;;
71030;Laerm;63723;51.436;5.976;2023-03-31T00:19:38;54.57;51.70;62.30;;
71030;Laerm;63723;51.436;5.976;2023-03-31T00:19:49;57.87;52.62;62.74;;
71030;Laerm;63723;51.436;5.976;2023-03-31T00:19:59;53.60;51.98;56.04;;
71030;Laerm;63723;51.436;5.976;2023-03-31T00:20:13;54.93;51.82;62.58;;
71030;Laerm;63723;51.436;5.976;2023-03-31T00:20:23;53.63;51.94;62.87;;
71030;Laerm;63723;51.436;5.976;2023-03-31T00:20:34;53.42;52.06;55.08;;
71030;Laerm;63723;51.436;5.976;2023-03-31T00:20:46;57.92;52.49;62.96;;
71030;Laerm;63723;51.436;5.976;2023-03-31T00:21:11;54.42;52.70;60.74;;
71030;Laerm;63723;51.436;5.976;2023-03-31T00:21:33;55.70;52.57;62.96;;
71030;Laerm;63723;51.436;5.976;2023-03-31T00:21:44;56.75;53.00;63.13;;
71030;Laerm;63723;51.436;5.976;2023-03-31T00:21:54;57.24;53.21;62.60;;
71030;Laerm;63723;51.436;5.976;2023-03-31T00:22:04;56.55;53.07;63.02;;
71030;Laerm;63723;51.436;5.976;2023-03-31T00:22:15;55.56;52.97;62.41;;
71030;Laerm;63723;51.436;5.976;2023-03-31T00:22:27;54.31;50.09;62.36;;
71030;Laerm;63723;51.436;5.976;2023-03-31T00:22:38;52.46;51.04;54.74;;
71030;Laerm;63723;51.436;5.976;2023-03-31T00:22:51;52.58;51.27;54.44;;
71030;Laerm;63723;51.436;5.976;2023-03-31T00:23:03;52.99;51.73;54.75;;
71030;Laerm;63723;51.436;5.976;2023-03-31T00:23:19;52.98;51.66;54.76;;
71030;Laerm;63723;51.436;5.976;2023-03-31T00:23:36;52.95;50.86;55.31;;
71030;Laerm;63723;51.436;5.976;2023-03-31T00:23:47;52.80;51.59;54.63;;
71030;Laerm;63723;51.436;5.976;2023-03-31T00:24:01;52.72;51.30;55.01;;
71030;Laerm;63723;51.436;5.976;2023-03-31T00:24:11;52.54;51.31;54.17;;
71030;Laerm;63723;51.436;5.976;2023-03-31T00:24:22;52.49;51.15;54.95;;
71030;Laerm;63723;51.436;5.976;2023-03-31T00:24:32;52.48;51.30;54.63;;
71030;Laerm;63723;51.436;5.976;2023-03-31T00:24:43;52.33;50.90;54.45;;
71030;Laerm;63723;51.436;5.976;2023-03-31T00:24:54;52.20;50.55;53.29;;
71030;Laerm;63723;51.436;5.976;2023-03-31T00:25:04;52.34;51.13;54.10;;
71030;Laerm;63723;51.436;5.976;2023-03-31T00:25:15;52.33;51.00;54.53;;
71030;Laerm;63723;51.436;5.976;2023-03-31T00:25:25;52.29;50.98;54.63;;
71030;Laerm;63723;51.436;5.976;2023-03-31T00:25:38;52.33;51.19;54.20;;
71030;Laerm;63723;51.436;5.976;2023-03-31T00:25:49;52.21;50.94;54.51;;
71030;Laerm;63723;51.436;5.976;2023-03-31T00:25:59;52.22;50.98;54.07;;
71030;Laerm;63723;51.436;5.976;2023-03-31T00:26:10;52.17;50.77;54.10;;
71030;Laerm;63723;51.436;5.976;2023-03-31T00:26:20;52.21;51.01;54.03;;
71030;Laerm;63723;51.436;5.976;2023-03-31T00:26:32;52.23;50.75;54.95;;
71030;Laerm;63723;51.436;5.976;2023-03-31T00:26:43;52.29;50.94;54.18;;
71030;Laerm;63723;51.436;5.976;2023-03-31T00:26:53;52.18;50.90;53.45;;
71030;Laerm;63723;51.436;5.976;2023-03-31T00:27:04;52.16;50.85;53.55;;
71030;Laerm;63723;51.436;5.976;2023-03-31T00:27:14;51.98;50.78;54.46;;
71030;Laerm;63723;51.436;5.976;2023-03-31T00:27:25;52.06;50.77;53.87;;
71030;Laerm;63723;51.436;5.976;2023-03-31T00:27:37;51.92;50.62;53.33;;
71030;Laerm;63723;51.436;5.976;2023-03-31T00:27:47;51.93;50.55;53.79;;
71030;Laerm;63723;51.436;5.976;2023-03-31T00:27:59;51.92;50.70;54.27;;
71030;Laerm;63723;51.436;5.976;2023-03-31T00:28:09;52.07;50.89;53.85;;
71030;Laerm;63723;51.436;5.976;2023-03-31T00:28:20;52.20;50.88;53.87;;
71030;Laerm;63723;51.436;5.976;2023-03-31T00:28:31;52.10;50.90;54.25;;
71030;Laerm;63723;51.436;5.976;2023-03-31T00:28:41;52.01;50.64;53.97;;
71030;Laerm;63723;51.436;5.976;2023-03-31T00:28:51;52.92;51.12;54.78;;
71030;Laerm;63723;51.436;5.976;2023-03-31T00:29:02;52.04;50.72;54.15;;
71030;Laerm;63723;51.436;5.976;2023-03-31T00:29:13;52.00;50.72;53.63;;
71030;Laerm;63723;51.436;5.976;2023-03-31T00:29:23;52.14;50.96;53.84;;
71030;Laerm;63723;51.436;5.976;2023-03-31T00:29:34;52.05;50.64;53.80;;
71030;Laerm;63723;51.436;5.976;2023-03-31T00:29:44;52.11;50.76;53.66;;
71030;Laerm;63723;51.436;5.976;2023-03-31T00:29:55;52.21;50.84;55.04;;
71030;Laerm;63723;51.436;5.976;2023-03-31T00:30:05;52.19;50.87;53.87;;
71030;Laerm;63723;51.436;5.976;2023-03-31T00:30:16;52.20;51.10;54.06;;
71030;Laerm;63723;51.436;5.976;2023-03-31T00:30:27;52.26;50.90;54.07;;
71030;Laerm;63723;51.436;5.976;2023-03-31T00:30:37;52.37;51.01;54.88;;
71030;Laerm;63723;51.436;5.976;2023-03-31T00:30:48;52.45;51.06;56.36;;
71030;Laerm;63723;51.436;5.976;2023-03-31T00:30:59;52.31;51.00;53.62;;
71030;Laerm;63723;51.436;5.976;2023-03-31T00:31:09;52.61;51.29;54.47;;
71030;Laerm;63723;51.436;5.976;2023-03-31T00:31:20;52.33;51.13;54.56;;
71030;Laerm;63723;51.436;5.976;2023-03-31T00:31:31;52.40;51.22;54.33;;
71030;Laerm;63723;51.436;5.976;2023-03-31T00:31:41;52.38;51.09;53.92;;
71030;Laerm;63723;51.436;5.976;2023-03-31T00:31:52;52.52;50.98;54.66;;
71030;Laerm;63723;51.436;5.976;2023-03-31T00:32:02;52.48;51.36;54.54;;
71030;Laerm;63723;51.436;5.976;2023-03-31T00:32:12;52.53;51.25;54.57;;
71030;Laerm;63723;51.436;5.976;2023-03-31T00:32:23;52.63;51.38;55.23;;
71030;Laerm;63723;51.436;5.976;2023-03-31T00:32:33;52.71;51.45;54.78;;
71030;Laerm;63723;51.436;5.976;2023-03-31T00:32:44;52.59;51.50;54.95;;
71030;Laerm;63723;51.436;5.976;2023-03-31T00:32:54;52.50;51.38;53.82;;
71030;Laerm;63723;51.436;5.976;2023-03-31T00:33:05;52.57;50.75;56.77;;
71030;Laerm;63723;51.436;5.976;2023-03-31T00:33:16;52.37;51.16;54.11;;
71030;Laerm;63723;51.436;5.976;2023-03-31T00:33:26;52.48;51.28;54.18;;
71030;Laerm;63723;51.436;5.976;2023-03-31T00:33:37;52.73;51.54;54.39;;
71030;Laerm;63723;51.436;5.976;2023-03-31T00:33:47;52.77;51.03;55.12;;
71030;Laerm;63723;51.436;5.976;2023-03-31T00:33:57;52.49;51.07;53.88;;
71030;Laerm;63723;51.436;5.976;2023-03-31T00:34:08;52.49;51.27;53.97;;
71030;Laerm;63723;51.436;5.976;2023-03-31T00:34:18;52.43;51.17;54.41;;
71030;Laerm;63723;51.436;5.976;2023-03-31T00:34:28;52.49;51.04;56.07;;
71030;Laerm;63723;51.436;5.976;2023-03-31T00:34:39;52.64;51.10;54.09;;
71030;Laerm;63723;51.436;5.976;2023-03-31T00:34:49;52.48;51.12;53.93;;
71030;Laerm;63723;51.436;5.976;2023-03-31T00:35:00;52.57;51.17;54.50;;
71030;Laerm;63723;51.436;5.976;2023-03-31T00:35:11;52.67;51.49;54.59;;
71030;Laerm;63723;51.436;5.976;2023-03-31T00:35:21;52.27;51.09;54.48;;
71030;Laerm;63723;51.436;5.976;2023-03-31T00:35:33;52.44;51.29;53.99;;
71030;Laerm;63723;51.436;5.976;2023-03-31T00:35:44;52.38;51.08;56.19;;
71030;Laerm;63723;51.436;5.976;2023-03-31T00:35:55;52.47;51.33;54.20;;
71030;Laerm;63723;51.436;5.976;2023-03-31T00:36:05;52.26;51.12;54.29;;
71030;Laerm;63723;51.436;5.976;2023-03-31T00:36:16;52.49;51.10;56.46;;
71030;Laerm;63723;51.436;5.976;2023-03-31T00:36:30;52.34;50.93;54.43;;
71030;Laerm;63723;51.436;5.976;2023-03-31T00:36:40;52.28;50.72;54.44;;
71030;Laerm;63723;51.436;5.976;2023-03-31T00:36:56;52.37;51.06;54.35;;
71030;Laerm;63723;51.436;5.976;2023-03-31T00:37:07;52.32;51.26;54.01;;
71030;Laerm;63723;51.436;5.976;2023-03-31T00:37:18;52.34;50.96;53.84;;
71030;Laerm;63723;51.436;5.976;2023-03-31T00:37:29;52.10;50.92;54.26;;
71030;Laerm;63723;51.436;5.976;2023-03-31T00:37:39;52.20;51.08;53.75;;
71030;Laerm;63723;51.436;5.976;2023-03-31T00:37:49;52.32;50.85;54.51;;
71030;Laerm;63723;51.436;5.976;2023-03-31T00:38:00;52.29;51.05;53.83;;
71030;Laerm;63723;51.436;5.976;2023-03-31T00:38:10;52.21;51.10;53.32;;
71030;Laerm;63723;51.436;5.976;2023-03-31T00:38:22;52.22;51.11;54.70;;
71030;Laerm;63723;51.436;5.976;2023-03-31T00:38:33;52.28;51.02;54.05;;
71030;Laerm;63723;51.436;5.976;2023-03-31T00:38:43;52.24;50.89;53.76;;
71030;Laerm;63723;51.436;5.976;2023-03-31T00:38:55;52.25;51.08;54.31;;
71030;Laerm;63723;51.436;5.976;2023-03-31T00:39:08;52.19;50.97;54.40;;
71030;Laerm;63723;51.436;5.976;2023-03-31T00:39:18;52.20;50.76;54.38;;
71030;Laerm;63723;51.436;5.976;2023-03-31T00:39:29;52.27;51.04;53.77;;
71030;Laerm;63723;51.436;5.976;2023-03-31T00:39:41;52.18;51.02;54.78;;
71030;Laerm;63723;51.436;5.976;2023-03-31T00:39:52;52.39;51.15;54.13;;
71030;Laerm;63723;51.436;5.976;2023-03-31T00:40:02;52.42;51.21;54.36;;
71030;Laerm;63723;51.436;5.976;2023-03-31T00:40:18;52.26;51.15;54.29;;
71030;Laerm;63723;51.436;5.976;2023-03-31T00:40:29;52.31;51.12;54.37;;
71030;Laerm;63723;51.436;5.976;2023-03-31T00:40:43;52.20;50.92;54.12;;
71030;Laerm;63723;51.436;5.976;2023-03-31T00:40:53;52.31;50.85;54.65;;
71030;Laerm;63723;51.436;5.976;2023-03-31T00:41:04;52.30;51.01;54.32;;
71030;Laerm;63723;51.436;5.976;2023-03-31T00:41:15;52.33;51.15;54.02;;
71030;Laerm;63723;51.436;5.976;2023-03-31T00:41:26;52.36;50.78;54.72;;
71030;Laerm;63723;51.436;5.976;2023-03-31T00:41:38;52.28;50.97;54.11;;
71030;Laerm;63723;51.436;5.976;2023-03-31T00:41:49;52.41;51.28;54.36;;
71030;Laerm;63723;51.436;5.976;2023-03-31T00:42:03;52.38;51.17;54.02;;
71030;Laerm;63723;51.436;5.976;2023-03-31T00:42:13;52.36;51.18;54.41;;
71030;Laerm;63723;51.436;5.976;2023-03-31T00:42:23;52.46;51.37;54.23;;
71030;Laerm;63723;51.436;5.976;2023-03-31T00:42:40;52.42;51.36;54.06;;
71030;Laerm;63723;51.436;5.976;2023-03-31T00:42:51;52.36;51.06;54.50;;
71030;Laerm;63723;51.436;5.976;2023-03-31T00:43:04;52.45;51.01;54.33;;
71030;Laerm;63723;51.436;5.976;2023-03-31T00:43:30;52.58;51.30;54.64;;
71030;Laerm;63723;51.436;5.976;2023-03-31T00:43:58;52.63;51.30;55.50;;
71030;Laerm;63723;51.436;5.976;2023-03-31T00:44:22;52.43;51.29;54.30;;
71030;Laerm;63723;51.436;5.976;2023-03-31T00:44:37;52.31;50.98;54.29;;
71030;Laerm;63723;51.436;5.976;2023-03-31T00:45:29;52.35;51.32;54.42;;
71030;Laerm;63723;51.436;5.976;2023-03-31T00:45:39;52.19;50.86;53.95;;
71030;Laerm;63723;51.436;5.976;2023-03-31T00:45:50;52.26;50.40;54.17;;
71030;Laerm;63723;51.436;5.976;2023-03-31T00:46:02;52.11;50.66;54.66;;
71030;Laerm;63723;51.436;5.976;2023-03-31T00:46:14;52.11;50.83;54.07;;
71030;Laerm;63723;51.436;5.976;2023-03-31T00:46:32;52.01;50.69;54.07;;
71030;Laerm;63723;51.436;5.976;2023-03-31T00:47:12;51.99;50.65;54.75;;
71030;Laerm;63723;51.436;5.976;2023-03-31T00:47:22;51.78;50.53;54.29;;
71030;Laerm;63723;51.436;5.976;2023-03-31T00:47:33;51.87;50.59;54.36;;
71030;Laerm;63723;51.436;5.976;2023-03-31T00:47:44;51.84;50.58;54.20;;
71030;Laerm;63723;51.436;5.976;2023-03-31T00:48:00;51.89;50.64;54.87;;
71030;Laerm;63723;51.436;5.976;2023-03-31T00:48:15;52.04;50.46;55.37;;
71030;Laerm;63723;51.436;5.976;2023-03-31T00:48:27;51.86;50.37;54.22;;
71030;Laerm;63723;51.436;5.976;2023-03-31T00:48:38;52.07;50.79;54.19;;
71030;Laerm;63723;51.436;5.976;2023-03-31T00:48:50;52.04;50.67;54.73;;
71030;Laerm;63723;51.436;5.976;2023-03-31T00:49:02;51.81;50.62;54.94;;
71030;Laerm;63723;51.436;5.976;2023-03-31T00:49:20;51.95;50.67;55.72;;
71030;Laerm;63723;51.436;5.976;2023-03-31T00:49:46;51.68;50.31;55.36;;
71030;Laerm;63723;51.436;5.976;2023-03-31T00:49:57;51.70;50.55;54.85;;
71030;Laerm;63723;51.436;5.976;2023-03-31T00:50:14;51.66;50.26;53.68;;
71030;Laerm;63723;51.436;5.976;2023-03-31T00:50:29;51.88;50.51;56.69;;
71030;Laerm;63723;51.436;5.976;2023-03-31T00:50:48;51.92;50.35;54.42;;
71030;Laerm;63723;51.436;5.976;2023-03-31T00:51:00;52.00;50.69;55.25;;
71030;Laerm;63723;51.436;5.976;2023-03-31T00:51:13;52.06;50.79;54.34;;
71030;Laerm;63723;51.436;5.976;2023-03-31T00:51:25;52.01;50.69;54.85;;
71030;Laerm;63723;51.436;5.976;2023-03-31T00:51:37;52.43;50.99;57.04;;
71030;Laerm;63723;51.436;5.976;2023-03-31T00:51:48;52.17;50.79;56.37;;
71030;Laerm;63723;51.436;5.976;2023-03-31T00:52:21;52.14;50.72;54.98;;
71030;Laerm;63723;51.436;5.976;2023-03-31T00:52:33;52.13;50.90;54.39;;
71030;Laerm;63723;51.436;5.976;2023-03-31T00:52:46;51.76;50.48;53.58;;
71030;Laerm;63723;51.436;5.976;2023-03-31T00:53:00;51.74;50.25;54.07;;
71030;Laerm;63723;51.436;5.976;2023-03-31T00:53:13;51.80;50.34;54.56;;
71030;Laerm;63723;51.436;5.976;2023-03-31T00:53:25;51.78;50.43;54.20;;
71030;Laerm;63723;51.436;5.976;2023-03-31T00:53:39;51.79;50.16;57.60;;
71030;Laerm;63723;51.436;5.976;2023-03-31T00:53:50;51.94;50.40;54.40;;
71030;Laerm;63723;51.436;5.976;2023-03-31T00:54:05;51.95;50.73;54.74;;
71030;Laerm;63723;51.436;5.976;2023-03-31T00:54:17;52.04;50.55;54.36;;
71030;Laerm;63723;51.436;5.976;2023-03-31T00:54:29;52.07;50.88;54.62;;
71030;Laerm;63723;51.436;5.976;2023-03-31T00:54:43;51.83;50.33;54.08;;
71030;Laerm;63723;51.436;5.976;2023-03-31T00:54:55;51.81;50.46;55.35;;
71030;Laerm;63723;51.436;5.976;2023-03-31T00:55:10;51.82;50.21;54.88;;
71030;Laerm;63723;51.436;5.976;2023-03-31T00:55:31;51.97;50.63;54.64;;
71030;Laerm;63723;51.436;5.976;2023-03-31T00:55:50;52.02;50.59;54.03;;
71030;Laerm;63723;51.436;5.976;2023-03-31T00:56:03;52.59;50.10;60.10;;
71030;Laerm;63723;51.436;5.976;2023-03-31T00:56:15;56.90;54.62;61.90;;
71030;Laerm;63723;51.436;5.976;2023-03-31T00:56:27;56.26;53.95;59.72;;
71030;Laerm;63723;51.436;5.976;2023-03-31T00:56:40;53.12;50.28;59.23;;
71030;Laerm;63723;51.436;5.976;2023-03-31T00:56:51;52.10;50.96;54.71;;
71030;Laerm;63723;51.436;5.976;2023-03-31T00:57:04;52.12;50.74;56.34;;
71030;Laerm;63723;51.436;5.976;2023-03-31T00:57:15;52.12;50.69;55.70;;
71030;Laerm;63723;51.436;5.976;2023-03-31T00:57:28;52.26;51.17;56.26;;
71030;Laerm;63723;51.436;5.976;2023-03-31T00:57:45;52.13;50.76;55.76;;
71030;Laerm;63723;51.436;5.976;2023-03-31T00:57:59;52.20;50.63;57.25;;
71030;Laerm;63723;51.436;5.976;2023-03-31T00:58:11;52.08;50.86;54.31;;
71030;Laerm;63723;51.436;5.976;2023-03-31T00:58:23;51.99;50.82;55.17;;
71030;Laerm;63723;51.436;5.976;2023-03-31T00:58:37;51.98;50.64;56.64;;
71030;Laerm;63723;51.436;5.976;2023-03-31T00:58:52;51.97;50.55;54.22;;
71030;Laerm;63723;51.436;5.976;2023-03-31T00:59:08;51.95;50.88;54.62;;
71030;Laerm;63723;51.436;5.976;2023-03-31T00:59:19;52.01;50.68;56.70;;
71030;Laerm;63723;51.436;5.976;2023-03-31T00:59:37;51.89;50.53;55.13;;
71030;Laerm;63723;51.436;5.976;2023-03-31T00:59:51;51.82;50.62;54.53;;
71030;Laerm;63723;51.436;5.976;2023-03-31T01:00:04;51.95;50.34;56.34;;
71030;Laerm;63723;51.436;5.976;2023-03-31T01:00:24;52.00;50.22;56.64;;
71030;Laerm;63723;51.436;5.976;2023-03-31T01:00:35;52.04;50.83;54.19;;
71030;Laerm;63723;51.436;5.976;2023-03-31T01:00:46;52.02;50.72;55.62;;
71030;Laerm;63723;51.436;5.976;2023-03-31T01:01:03;51.91;50.54;54.72;;
71030;Laerm;63723;51.436;5.976;2023-03-31T01:01:14;51.98;50.73;54.60;;
71030;Laerm;63723;51.436;5.976;2023-03-31T01:01:26;51.97;50.40;56.00;;
71030;Laerm;63723;51.436;5.976;2023-03-31T01:01:36;51.94;50.45;53.91;;
71030;Laerm;63723;51.436;5.976;2023-03-31T01:01:48;52.00;50.72;54.64;;
71030;Laerm;63723;51.436;5.976;2023-03-31T01:01:59;52.05;50.90;55.27;;
71030;Laerm;63723;51.436;5.976;2023-03-31T01:02:12;52.01;50.29;54.09;;
71030;Laerm;63723;51.436;5.976;2023-03-31T01:02:23;52.04;50.92;54.91;;
71030;Laerm;63723;51.436;5.976;2023-03-31T01:02:36;52.03;50.62;56.76;;
71030;Laerm;63723;51.436;5.976;2023-03-31T01:02:52;52.05;50.26;54.59;;
71030;Laerm;63723;51.436;5.976;2023-03-31T01:03:05;51.92;50.59;54.52;;
71030;Laerm;63723;51.436;5.976;2023-03-31T01:03:16;52.10;50.62;54.49;;
71030;Laerm;63723;51.436;5.976;2023-03-31T01:03:28;52.09;50.91;56.69;;
71030;Laerm;63723;51.436;5.976;2023-03-31T01:03:40;51.98;50.57;54.66;;
71030;Laerm;63723;51.436;5.976;2023-03-31T01:03:51;52.03;50.55;55.99;;
71030;Laerm;63723;51.436;5.976;2023-03-31T01:04:02;52.01;50.73;54.00;;
71030;Laerm;63723;51.436;5.976;2023-03-31T01:04:14;52.01;50.55;55.32;;
71030;Laerm;63723;51.436;5.976;2023-03-31T01:04:25;52.10;50.80;55.32;;
71030;Laerm;63723;51.436;5.976;2023-03-31T01:04:38;52.21;50.79;56.63;;
71030;Laerm;63723;51.436;5.976;2023-03-31T01:04:51;52.11;50.46;54.92;;
71030;Laerm;63723;51.436;5.976;2023-03-31T01:05:04;52.05;50.60;54.53;;
71030;Laerm;63723;51.436;5.976;2023-03-31T01:05:15;52.02;50.67;54.28;;
71030;Laerm;63723;51.436;5.976;2023-03-31T01:05:46;51.98;50.64;56.24;;
71030;Laerm;63723;51.436;5.976;2023-03-31T01:06:00;51.92;50.42;58.26;;
71030;Laerm;63723;51.436;5.976;2023-03-31T01:06:13;51.89;50.27;54.76;;
71030;Laerm;63723;51.436;5.976;2023-03-31T01:06:25;51.84;50.57;54.39;;
71030;Laerm;63723;51.436;5.976;2023-03-31T01:06:43;51.93;50.47;55.14;;
71030;Laerm;63723;51.436;5.976;2023-03-31T01:07:04;51.70;50.46;54.20;;
71030;Laerm;63723;51.436;5.976;2023-03-31T01:07:34;51.74;50.65;55.01;;
71030;Laerm;63723;51.436;5.976;2023-03-31T01:07:47;51.68;50.34;55.60;;
71030;Laerm;63723;51.436;5.976;2023-03-31T01:07:59;51.68;50.36;53.99;;
71030;Laerm;63723;51.436;5.976;2023-03-31T01:08:11;51.70;50.53;53.97;;
71030;Laerm;63723;51.436;5.976;2023-03-31T01:08:24;51.70;50.44;54.29;;
71030;Laerm;63723;51.436;5.976;2023-03-31T01:08:34;51.68;50.61;53.70;;
71030;Laerm;63723;51.436;5.976;2023-03-31T01:08:46;51.73;50.42;53.80;;
71030;Laerm;63723;51.436;5.976;2023-03-31T01:08:57;51.68;50.62;54.42;;
71030;Laerm;63723;51.436;5.976;2023-03-31T01:09:07;51.55;50.38;53.11;;
71030;Laerm;63723;51.436;5.976;2023-03-31T01:09:18;51.54;50.46;53.61;;
71030;Laerm;63723;51.436;5.976;2023-03-31T01:09:29;51.73;50.66;54.12;;